Главная страница
METAR-TAF:

METAR-TAF

Аэропорты :

Саннефьорд, Норвегия

широта: 59-12N, долгота: 010-16E, высота над уровнем моря: 8 м

Текущие метеонаблюдения

Эта сводка был подготовлена 12 минут назад, в 22:20 UTC
Ветер 4 Узел от юго-западный
Температура 4°C
Влажность 70%
Давление 1007 hPa
Видимость 10 км и более

METAR: ENTO 072220Z AUTO 22004KT 9999 NCD 04/M01 Q1007

Время: 00:32 (22:32 UTC)

Прогноз

Эта сводка был подготовлена 3 часа и 45 минут назад, в 18:47 UTC
Прогноз действительный с 07-го 18 UTC до 08-го 18 UTC
Ветер 10 Узел от южный-юго-западный
Видимость 10 км и более
небольшая облачность на высоте 3000 фута
временами
С 07-го 18 UTC до 07-го 20 UTC
небольшая облачность на высоте 1000 фута, Кучево-дождевые.
изменения
С 07-го 21 UTC до 07-го 24 UTC
Ветер 5 Узел от северный
изменения
С 08-го 11 UTC до 08-го 13 UTC
Ветер 10 Узел от южный

TAF: ENTO 071847Z 0718/0818 21010KT 9999 FEW030 TEMPO 0718/0720 FEW010CB BECMG 0721/0724 36005KT BECMG 0811/0813 19010KT

Метеонаблюдения и прогнозы для более 4000 аэропортов (сводки METAR и TAF).

Имеющиеся станции представлены на карте желтыми и красными точками.

Чтобы увидеть название станции, наведите на нее мышь.

Затем щелкните, чтобы увидеть метеонаблюдения и метеопрогнозы.

Управление картой: чтобы увеличить масштаб, щелкните зеленые кнопки с черным крестиком; чтобы уменьшить масштаб, щелкните зеленую кнопку с тире; для просмотра соседних карт щелкайте зеленые стрелки.


METAR-TAF: